KEHY

Elk Mountain

Elk Mountain, Wyoming, USA
METAR KEHY 231355Z AUTO 00000KT 10SM SCT048 M15/M17 A2989 RMK AO2
Observed Flight Rules
Feb-23 @ 13:55 UTC (34 minutes ago) Visual Flight Rules
Wind Visibility Clouds
Calm 10 miles
  • Scattered at 4,800' AGL
Temperatures Readings
Current -15°C / 5°F
Dewpoint -17°C / 1°F
Humidity 85%
Altimeter 29.89" Hg
Pressure 1012 hPa
Elevation 2225
METAR KEHY 231355Z AUTO 00000KT 10SM SCT048 M15/M17 A2989 RMK AO2
Observed Flight Rules
Feb-23 @ 13:55 UTC
(34 minutes ago)
VFR
Wind Visibility
Calm 10 miles
Clouds
  • Scattered at 4,800' AGL
Temperature Dewpoint
-15°C / 5°F -17°C / 1°F
Humidity Altimeter Pressure
85% 29.89" Hg 1012 hPa